Time;durP1;ratioP1;P1;durP2;ratioP2;P2;SDS_P1;SDS_P2;PMS_P1;PMS_P2;Temp;Humidity;BMP_temperature;BMP_pressure;BME280_temperature;BME280_humidity;BME280_pressure;Samples;Min_cycle;Max_cycle;Signal;HPM_P1;HPM_P2
2023/05/20 00:01:35;;;;;;;6.15;2.90;;;18.10;52.10;;;;;;5073479;28;20737;-72
2023/05/20 00:04:03;;;;;;;4.00;3.03;;;18.10;52.10;;;;;;5073638;28;20202;-72
2023/05/20 00:06:31;;;;;;;4.78;3.20;;;18.10;52.10;;;;;;5073703;28;20219;-72
2023/05/20 00:08:58;;;;;;;4.97;3.05;;;18.10;52.10;;;;;;5073596;28;20285;-72
2023/05/20 00:11:26;;;;;;;6.00;2.83;;;18.10;52.10;;;;;;5055883;28;20215;-72
2023/05/20 00:13:53;;;;;;;4.07;3.08;;;18.10;52.10;;;;;;5055547;28;20217;-72
2023/05/20 00:16:20;;;;;;;4.30;3.15;;;18.10;52.10;;;;;;5073200;28;20707;-72
2023/05/20 00:18:47;;;;;;;4.93;3.00;;;18.10;52.10;;;;;;5073434;28;20357;-72
2023/05/20 00:21:16;;;;;;;5.78;2.83;;;18.10;52.10;;;;;;5073446;28;20225;-72
2023/05/20 00:23:43;;;;;;;3.75;3.00;;;18.10;52.10;;;;;;5072975;28;20632;-72
2023/05/20 00:26:10;;;;;;;6.25;3.60;;;18.10;52.10;;;;;;5073341;28;20712;-73
2023/05/20 00:28:37;;;;;;;7.10;3.40;;;18.10;52.20;;;;;;5073227;28;20186;-73
2023/05/20 00:31:05;;;;;;;4.57;3.33;;;18.10;52.10;;;;;;5073200;28;20305;-73
2023/05/20 00:33:32;;;;;;;5.88;3.70;;;18.10;52.10;;;;;;5055432;28;20210;-73
2023/05/20 00:35:59;;;;;;;5.00;3.20;;;18.10;52.20;;;;;;5055303;28;20226;-73
2023/05/20 00:38:28;;;;;;;4.00;3.13;;;18.00;52.10;;;;;;5079027;28;20216;-73
2023/05/20 00:40:55;;;;;;;6.68;3.47;;;18.00;52.10;;;;;;5105694;28;20669;-72
2023/05/20 00:43:24;;;;;;;4.20;3.05;;;18.00;52.10;;;;;;5091319;28;20201;-73
2023/05/20 00:45:52;;;;;;;6.07;3.30;;;18.00;52.10;;;;;;5113501;28;20569;-73
2023/05/20 00:48:20;;;;;;;6.07;3.58;;;18.00;52.10;;;;;;5113136;28;20651;-73
2023/05/20 00:50:48;;;;;;;5.07;2.90;;;18.00;52.10;;;;;;5113276;28;20229;-73
2023/05/20 00:53:17;;;;;;;9.15;4.13;;;18.10;52.20;;;;;;5113202;28;20312;-73
2023/05/20 00:55:46;;;;;;;4.40;3.33;;;18.00;52.10;;;;;;5113302;28;20189;-73
2023/05/20 00:58:13;;;;;;;4.20;3.00;;;18.00;52.10;;;;;;5113263;28;20189;-73
2023/05/20 01:00:40;;;;;;;4.28;3.40;;;18.00;52.10;;;;;;5094780;28;20193;-72
2023/05/20 01:03:08;;;;;;;5.22;3.30;;;18.00;52.10;;;;;;5094756;28;20741;-73
2023/05/20 01:05:35;;;;;;;4.95;3.70;;;18.00;52.10;;;;;;5112876;28;20192;-73
2023/05/20 01:08:02;;;;;;;4.35;3.38;;;18.00;52.10;;;;;;5113113;28;20213;-73
2023/05/20 01:10:30;;;;;;;4.90;3.38;;;18.00;52.10;;;;;;5113062;28;20288;-73
2023/05/20 01:13:05;;;;;;;5.88;3.55;;;18.00;52.10;;;;;;5113332;28;20216;-73
2023/05/20 01:15:32;;;;;;;4.50;3.13;;;18.00;52.10;;;;;;5112861;28;20195;-72
2023/05/20 01:18:04;;;;;;;4.97;3.38;;;18.00;52.10;;;;;;5113261;28;20239;-73
2023/05/20 01:20:32;;;;;;;5.65;3.25;;;18.00;52.10;;;;;;5112659;28;20650;-73
2023/05/20 01:23:02;;;;;;;6.88;3.60;;;18.00;52.20;;;;;;5112954;28;20217;-73
2023/05/20 01:25:29;;;;;;;7.15;3.70;;;18.00;52.20;;;;;;5094703;28;20647;-73
2023/05/20 01:27:58;;;;;;;4.28;3.47;;;18.00;52.20;;;;;;5113113;28;20317;-74
2023/05/20 01:30:29;;;;;;;6.43;3.45;;;18.00;52.20;;;;;;5094413;28;20258;-74
2023/05/20 01:33:02;;;;;;;6.18;3.53;;;18.00;52.20;;;;;;5094282;28;20702;-73
2023/05/20 01:35:30;;;;;;;4.00;3.60;;;18.00;52.20;;;;;;5112385;28;20209;-73
2023/05/20 01:37:58;;;;;;;5.25;3.50;;;17.90;52.10;;;;;;5112828;28;20304;-73
2023/05/20 01:40:28;;;;;;;5.93;3.60;;;18.00;52.30;;;;;;5112799;28;20569;-73
2023/05/20 01:42:56;;;;;;;4.00;3.10;;;17.90;52.20;;;;;;5112922;28;20299;-73
2023/05/20 01:45:25;;;;;;;6.60;4.13;;;17.90;52.30;;;;;;5112628;28;20185;-72
2023/05/20 01:47:52;;;;;;;6.13;4.05;;;17.90;52.20;;;;;;5112797;28;20300;-72
2023/05/20 01:50:19;;;;;;;5.65;3.45;;;17.90;52.20;;;;;;5112300;28;20593;-73
2023/05/20 01:52:46;;;;;;;5.75;3.70;;;17.90;52.20;;;;;;5112326;28;20719;-73
2023/05/20 01:55:14;;;;;;;7.60;3.90;;;17.90;52.30;;;;;;5094100;28;20217;-73
2023/05/20 01:57:43;;;;;;;6.15;3.58;;;17.90;52.30;;;;;;5112865;28;20219;-73
2023/05/20 02:00:11;;;;;;;5.88;3.95;;;17.90;52.30;;;;;;5094137;28;20598;-73
2023/05/20 02:02:38;;;;;;;6.82;3.90;;;17.90;52.30;;;;;;5112486;28;20644;-73
2023/05/20 02:05:06;;;;;;;7.22;3.70;;;17.90;52.30;;;;;;5112519;28;20546;-73
2023/05/20 02:07:33;;;;;;;5.22;3.65;;;17.90;52.30;;;;;;5112281;28;20785;-73
2023/05/20 02:10:00;;;;;;;5.68;3.65;;;17.90;52.30;;;;;;5112641;28;20185;-74
2023/05/20 02:12:27;;;;;;;5.28;3.50;;;17.90;52.30;;;;;;5112599;28;20221;-73
2023/05/20 02:14:57;;;;;;;6.45;3.45;;;17.90;52.30;;;;;;5097049;28;20225;-73
2023/05/20 02:17:24;;;;;;;5.25;3.60;;;17.90;52.30;;;;;;5116582;28;20296;-73
2023/05/20 02:19:51;;;;;;;6.78;3.72;;;17.90;52.30;;;;;;5116724;28;20189;-72
2023/05/20 02:22:18;;;;;;;4.18;3.10;;;17.90;52.30;;;;;;5116278;28;20262;-72
2023/05/20 02:24:45;;;;;;;5.22;3.28;;;17.90;52.30;;;;;;5116181;28;20185;-72
2023/05/20 02:27:13;;;;;;;5.45;3.40;;;17.90;52.30;;;;;;5116375;28;20213;-73
2023/05/20 02:29:40;;;;;;;6.10;3.42;;;17.90;52.30;;;;;;5116220;28;20189;-72
2023/05/20 02:32:10;;;;;;;5.65;3.30;;;17.90;52.30;;;;;;5116218;28;20305;-72
2023/05/20 02:34:37;;;;;;;5.18;3.17;;;17.90;52.40;;;;;;5115978;28;20213;-73
2023/05/20 02:37:04;;;;;;;4.40;3.08;;;17.90;52.40;;;;;;5115970;28;20300;-73
2023/05/20 02:39:31;;;;;;;5.80;3.50;;;17.90;52.30;;;;;;5116010;28;20302;-73
2023/05/20 02:41:58;;;;;;;6.18;3.13;;;17.90;52.30;;;;;;5098020;28;20643;-72
2023/05/20 02:44:26;;;;;;;8.57;2.97;;;17.90;52.30;;;;;;5115913;28;20192;-73
2023/05/20 02:46:53;;;;;;;5.07;3.33;;;17.80;52.20;;;;;;5115980;28;20223;-73
2023/05/20 02:49:23;;;;;;;4.88;3.17;;;17.90;52.40;;;;;;5115608;28;20275;-72
2023/05/20 02:51:50;;;;;;;7.47;3.20;;;17.80;52.20;;;;;;5116106;28;20213;-72
2023/05/20 02:54:17;;;;;;;5.55;3.30;;;17.80;52.20;;;;;;5115540;28;20221;-72
2023/05/20 02:56:44;;;;;;;5.93;3.30;;;17.80;52.20;;;;;;5097378;28;20213;-72
2023/05/20 02:59:11;;;;;;;6.25;3.65;;;17.80;52.20;;;;;;5115660;28;20185;-73
2023/05/20 03:01:39;;;;;;;5.15;3.10;;;17.80;52.40;;;;;;5115284;28;20223;-73
2023/05/20 03:04:06;;;;;;;6.45;3.58;;;17.80;52.20;;;;;;5115593;28;20193;-73
2023/05/20 03:06:36;;;;;;;5.95;3.30;;;17.80;52.90;;;;;;5115172;28;20716;-73
2023/05/20 03:09:04;;;;;;;4.75;3.33;;;17.80;52.20;;;;;;5097707;28;20268;-73
2023/05/20 03:11:31;;;;;;;6.32;3.10;;;17.80;52.20;;;;;;5115335;28;20224;-73
2023/05/20 03:13:59;;;;;;;4.30;3.33;;;17.80;52.90;;;;;;5115254;28;20625;-73
2023/05/20 03:16:26;;;;;;;6.15;3.53;;;17.80;52.20;;;;;;5115017;28;20655;-73
2023/05/20 03:18:54;;;;;;;4.50;3.20;;;17.80;52.20;;;;;;5115526;28;20192;-72
2023/05/20 03:21:22;;;;;;;6.20;3.17;;;17.80;52.20;;;;;;5115431;28;20221;-72
2023/05/20 03:23:51;;;;;;;6.70;3.40;;;17.80;52.20;;;;;;5114741;28;20712;-73
2023/05/20 03:26:18;;;;;;;5.03;3.03;;;17.80;52.20;;;;;;5113780;28;20208;-72
2023/05/20 03:28:45;;;;;;;5.82;2.97;;;17.80;52.20;;;;;;5115057;28;20181;-73
2023/05/20 03:31:12;;;;;;;5.47;3.33;;;17.80;52.30;;;;;;5115029;28;20304;-72
2023/05/20 03:33:39;;;;;;;4.22;2.95;;;17.80;52.20;;;;;;5114711;28;20189;-72
2023/05/20 03:36:06;;;;;;;7.35;3.40;;;17.80;52.20;;;;;;5114765;28;20213;-74
2023/05/20 03:38:33;;;;;;;6.22;3.22;;;17.70;52.10;;;;;;5115046;28;20280;-72
2023/05/20 03:41:02;;;;;;;7.53;3.67;;;17.80;52.20;;;;;;5114453;28;20192;-72
2023/05/20 03:43:29;;;;;;;5.53;3.17;;;17.70;52.10;;;;;;5114862;28;20182;-72
2023/05/20 03:45:56;;;;;;;4.70;2.88;;;17.80;52.20;;;;;;5114920;28;20272;-72
2023/05/20 03:48:23;;;;;;;7.68;2.83;;;17.70;52.10;;;;;;5114669;28;20236;-72
2023/05/20 03:50:50;;;;;;;5.20;3.10;;;17.70;52.10;;;;;;5114466;28;20264;-72
2023/05/20 03:53:19;;;;;;;6.38;3.25;;;17.80;52.20;;;;;;5114394;28;20209;-72
2023/05/20 03:55:46;;;;;;;4.32;3.15;;;17.70;52.10;;;;;;5079877;28;20212;-72
2023/05/20 03:58:16;;;;;;;6.05;3.20;;;17.70;52.10;;;;;;5114611;28;20302;-72
2023/05/20 04:00:43;;;;;;;4.68;3.20;;;17.70;52.10;;;;;;5114446;28;20281;-72
2023/05/20 04:03:10;;;;;;;7.03;3.33;;;17.70;52.10;;;;;;5114389;28;20217;-72
2023/05/20 04:05:37;;;;;;;7.10;3.05;;;17.70;52.80;;;;;;5114240;28;20185;-73
2023/05/20 04:08:05;;;;;;;8.73;3.30;;;17.70;52.10;;;;;;5096667;28;20219;-74
2023/05/20 04:10:33;;;;;;;5.72;3.05;;;17.70;52.10;;;;;;5114276;28;20185;-73
2023/05/20 04:13:00;;;;;;;8.18;3.55;;;17.70;52.10;;;;;;5114127;28;20219;-73
2023/05/20 04:15:29;;;;;;;6.60;3.55;;;17.70;52.10;;;;;;5113663;28;20220;-73
2023/05/20 04:17:56;;;;;;;6.28;3.55;;;17.70;52.10;;;;;;5114012;28;20721;-73
2023/05/20 04:20:24;;;;;;;4.90;3.15;;;17.70;52.10;;;;;;5096028;28;20631;-73
2023/05/20 04:22:52;;;;;;;6.78;3.33;;;17.70;52.10;;;;;;5113832;28;20577;-73
2023/05/20 04:25:20;;;;;;;6.03;2.92;;;17.70;52.10;;;;;;5113951;28;20189;-73
2023/05/20 04:27:49;;;;;;;4.88;3.13;;;17.70;52.10;;;;;;5113759;28;20762;-72
2023/05/20 04:30:17;;;;;;;5.63;3.58;;;17.70;52.10;;;;;;5113583;28;20194;-72
2023/05/20 04:32:47;;;;;;;6.10;3.05;;;17.70;52.10;;;;;;5113976;28;20263;-73
2023/05/20 04:35:14;;;;;;;7.15;3.33;;;17.70;52.10;;;;;;5113616;28;20217;-73
2023/05/20 04:37:43;;;;;;;6.43;3.50;;;17.70;52.10;;;;;;5113169;28;20217;-74
2023/05/20 04:40:12;;;;;;;5.88;2.92;;;17.70;52.10;;;;;;5113705;28;20189;-73
2023/05/20 04:42:39;;;;;;;5.57;3.10;;;17.70;52.10;;;;;;5114115;28;20213;-73
2023/05/20 04:45:08;;;;;;;4.68;2.88;;;17.70;52.10;;;;;;5095529;28;20193;-73
2023/05/20 04:47:37;;;;;;;8.23;3.50;;;17.70;52.10;;;;;;5095681;28;20213;-73
2023/05/20 04:50:09;;;;;;;6.18;3.20;;;17.70;52.10;;;;;;5113221;28;20228;-74
2023/05/20 04:52:36;;;;;;;7.30;3.28;;;17.70;52.10;;;;;;5113359;28;20212;-73
2023/05/20 04:55:04;;;;;;;7.93;3.50;;;17.70;52.10;;;;;;5113000;28;20266;-74
2023/05/20 04:57:33;;;;;;;5.40;3.13;;;17.70;52.10;;;;;;5113392;28;20301;-73
2023/05/20 05:00:00;;;;;;;6.38;3.30;;;17.70;52.80;;;;;;5113333;28;20196;-73
2023/05/20 05:02:27;;;;;;;7.53;3.40;;;17.70;52.10;;;;;;5113170;28;20275;-73
2023/05/20 05:04:55;;;;;;;4.63;3.22;;;17.70;52.10;;;;;;5095016;28;20658;-73
2023/05/20 05:07:23;;;;;;;7.63;3.65;;;17.70;52.80;;;;;;5113226;28;20217;-75
2023/05/20 05:09:50;;;;;;;6.32;3.33;;;17.60;52.00;;;;;;5112774;28;20195;-73
2023/05/20 05:12:17;;;;;;;5.55;3.25;;;17.70;52.10;;;;;;5113258;28;20217;-73
2023/05/20 05:14:44;;;;;;;8.23;3.60;;;17.70;52.10;;;;;;5112554;28;20678;-73
2023/05/20 05:17:12;;;;;;;6.22;3.10;;;17.70;52.10;;;;;;5112839;28;20213;-72
2023/05/20 05:19:39;;;;;;;5.65;2.88;;;17.70;52.10;;;;;;5113055;28;20270;-73
2023/05/20 05:22:06;;;;;;;5.63;3.30;;;17.60;51.90;;;;;;5112999;28;20213;-73
2023/05/20 05:24:35;;;;;;;5.30;3.40;;;17.60;52.00;;;;;;5094763;28;20204;-72
2023/05/20 05:27:02;;;;;;;5.47;3.08;;;17.60;52.00;;;;;;5094912;28;20577;-73
2023/05/20 05:29:29;;;;;;;6.40;3.40;;;17.60;52.00;;;;;;5112860;28;20272;-73
2023/05/20 05:31:57;;;;;;;9.10;3.40;;;17.70;52.00;;;;;;5112571;28;20217;-72
2023/05/20 05:34:24;;;;;;;4.43;2.90;;;17.70;52.00;;;;;;5094523;28;20554;-72
2023/05/20 05:36:51;;;;;;;4.63;2.97;;;17.60;51.90;;;;;;5112789;28;20255;-72
2023/05/20 05:39:18;;;;;;;9.57;3.15;;;17.60;51.90;;;;;;5112762;28;20280;-72
2023/05/20 05:41:47;;;;;;;6.97;3.35;;;17.70;52.00;;;;;;5112747;28;20212;-72
2023/05/20 05:44:14;;;;;;;5.63;3.25;;;17.70;52.00;;;;;;5112638;28;20280;-72
2023/05/20 05:46:41;;;;;;;6.53;3.17;;;17.70;52.00;;;;;;5112459;28;20220;-72
2023/05/20 05:49:08;;;;;;;6.57;3.35;;;17.70;51.90;;;;;;5114164;28;20556;-73
2023/05/20 05:51:35;;;;;;;4.80;3.00;;;17.70;51.90;;;;;;5116831;28;20212;-73
2023/05/20 05:54:02;;;;;;;5.75;3.15;;;17.70;52.60;;;;;;5116548;28;20203;-72
2023/05/20 05:56:29;;;;;;;7.78;3.20;;;17.70;51.90;;;;;;5116814;28;20251;-73
2023/05/20 05:58:58;;;;;;;6.18;3.10;;;17.70;51.90;;;;;;5116940;28;20268;-73
2023/05/20 06:01:25;;;;;;;7.97;3.25;;;17.70;51.90;;;;;;5116437;28;20189;-72
2023/05/20 06:03:52;;;;;;;6.00;3.22;;;17.70;51.90;;;;;;5116901;28;20197;-72
2023/05/20 06:06:19;;;;;;;7.07;3.55;;;17.70;51.90;;;;;;5116738;28;20276;-72
2023/05/20 06:08:47;;;;;;;6.13;3.40;;;17.70;51.90;;;;;;5116224;28;20192;-73
2023/05/20 06:11:14;;;;;;;6.32;3.75;;;17.70;51.90;;;;;;5098224;28;20196;-73
2023/05/20 06:13:41;;;;;;;6.05;3.08;;;17.70;51.90;;;;;;5116456;28;20185;-72
2023/05/20 06:16:10;;;;;;;7.65;3.53;;;17.70;51.90;;;;;;5116151;28;20217;-73
2023/05/20 06:18:37;;;;;;;7.28;3.38;;;17.70;51.80;;;;;;5116520;28;20538;-73
2023/05/20 06:21:04;;;;;;;5.53;3.08;;;17.70;51.80;;;;;;5116048;28;20674;-72
2023/05/20 06:23:31;;;;;;;5.50;3.50;;;17.70;51.80;;;;;;5116437;28;20612;-73
2023/05/20 06:25:59;;;;;;;6.05;3.28;;;17.70;51.80;;;;;;5116186;28;20196;-73
2023/05/20 06:28:26;;;;;;;5.55;3.42;;;17.70;51.80;;;;;;5116150;28;20712;-72
2023/05/20 06:30:55;;;;;;;5.78;2.97;;;17.70;51.80;;;;;;5116235;28;20334;-73
2023/05/20 06:33:25;;;;;;;9.88;3.50;;;17.70;51.80;;;;;;5116307;28;20646;-72
2023/05/20 06:35:52;;;;;;;5.55;3.40;;;17.70;51.80;;;;;;5116082;28;20240;-72
2023/05/20 06:38:20;;;;;;;4.72;3.28;;;17.70;51.80;;;;;;5097585;28;20221;-73
2023/05/20 06:40:48;;;;;;;5.10;3.55;;;17.70;51.80;;;;;;5116079;28;20186;-72
2023/05/20 06:43:15;;;;;;;5.72;3.20;;;17.70;52.40;;;;;;5115463;28;20685;-72
2023/05/20 06:45:42;;;;;;;8.38;3.50;;;17.70;51.80;;;;;;5115967;28;20619;-73
2023/05/20 06:48:09;;;;;;;6.18;3.30;;;17.70;51.80;;;;;;5115770;28;20305;-72
2023/05/20 06:50:38;;;;;;;8.05;3.53;;;17.70;51.80;;;;;;5115457;28;20229;-73
2023/05/20 06:53:05;;;;;;;6.63;3.45;;;17.70;51.80;;;;;;5097569;28;20732;-73
2023/05/20 06:55:32;;;;;;;6.72;3.40;;;17.70;51.80;;;;;;5115647;28;20628;-72
2023/05/20 06:57:59;;;;;;;7.35;3.38;;;17.70;51.80;;;;;;5115902;28;20213;-72
2023/05/20 07:00:26;;;;;;;6.90;3.50;;;17.80;51.90;;;;;;5115034;28;20196;-73
2023/05/20 07:02:54;;;;;;;6.32;3.15;;;17.80;51.90;;;;;;5115410;28;20219;-72
2023/05/20 07:05:21;;;;;;;3.97;2.95;;;17.80;51.90;;;;;;5115538;28;20194;-73
2023/05/20 07:07:49;;;;;;;7.78;2.92;;;17.80;51.80;;;;;;5115563;28;20213;-73
2023/05/20 07:10:17;;;;;;;6.32;3.40;;;17.80;51.80;;;;;;5097515;28;20216;-73
2023/05/20 07:12:44;;;;;;;9.15;3.65;;;17.70;51.80;;;;;;5097014;28;20224;-72
2023/05/20 07:15:11;;;;;;;5.80;2.80;;;17.80;52.50;;;;;;5115214;28;20185;-72
2023/05/20 07:17:39;;;;;;;10.27;3.55;;;17.80;51.90;;;;;;5115439;28;20215;-72
2023/05/20 07:20:07;;;;;;;9.57;3.42;;;17.80;51.80;;;;;;5115229;28;20273;-72
2023/05/20 07:22:34;;;;;;;7.13;3.28;;;17.80;51.90;;;;;;5110264;28;20217;-72
2023/05/20 07:25:03;;;;;;;7.43;3.15;;;17.80;51.90;;;;;;5115110;28;20213;-72
2023/05/20 07:27:30;;;;;;;8.02;3.50;;;17.80;51.90;;;;;;5097228;28;20308;-72
2023/05/20 07:29:57;;;;;;;7.20;3.70;;;17.70;51.80;;;;;;5115159;28;20197;-72
2023/05/20 07:32:25;;;;;;;7.18;3.20;;;17.80;51.90;;;;;;5114826;28;20217;-73
2023/05/20 07:34:52;;;;;;;8.48;3.60;;;17.80;51.90;;;;;;5115024;28;20185;-72
2023/05/20 07:37:19;;;;;;;6.40;3.70;;;17.80;51.90;;;;;;5114813;28;20319;-72
2023/05/20 07:39:46;;;;;;;6.75;3.53;;;17.80;51.90;;;;;;5114880;28;20298;-72
2023/05/20 07:42:15;;;;;;;8.85;3.75;;;17.80;51.90;;;;;;5114829;28;20217;-72
2023/05/20 07:44:42;;;;;;;6.57;3.15;;;17.80;51.90;;;;;;5114939;28;20189;-72
2023/05/20 07:47:09;;;;;;;7.22;3.80;;;17.80;52.00;;;;;;5096452;28;20737;-72
2023/05/20 07:49:37;;;;;;;9.45;3.78;;;17.70;51.90;;;;;;5114914;28;20308;-73
2023/05/20 07:52:04;;;;;;;9.00;3.60;;;17.80;52.00;;;;;;5096747;28;20763;-74
2023/05/20 07:54:31;;;;;;;7.20;3.20;;;17.70;51.90;;;;;;5114516;28;20276;-74
2023/05/20 07:56:59;;;;;;;9.20;3.58;;;17.70;51.90;;;;;;5096229;28;20236;-76
2023/05/20 07:59:29;;;;;;;6.03;3.65;;;17.80;52.10;;;;;;5114506;28;20224;-73
2023/05/20 08:01:56;;;;;;;7.68;3.55;;;17.70;51.90;;;;;;5114121;28;20244;-73
2023/05/20 08:04:23;;;;;;;7.00;3.75;;;17.80;52.10;;;;;;5096120;28;20764;-73
2023/05/20 08:06:50;;;;;;;9.20;3.63;;;17.70;52.00;;;;;;5114352;28;20213;-73
2023/05/20 08:09:18;;;;;;;7.78;3.70;;;17.70;52.00;;;;;;5096247;28;20185;-73
2023/05/20 08:11:45;;;;;;;6.50;3.80;;;17.70;52.10;;;;;;5095428;28;20213;-73
2023/05/20 08:14:12;;;;;;;5.57;3.63;;;17.70;52.10;;;;;;5114311;28;20221;-73
2023/05/20 08:16:42;;;;;;;8.25;3.50;;;17.70;52.70;;;;;;5114066;28;20217;-73
2023/05/20 08:19:09;;;;;;;6.13;3.78;;;17.70;52.10;;;;;;5095812;28;20185;-75
2023/05/20 08:21:37;;;;;;;7.13;3.97;;;17.70;52.10;;;;;;5114326;28;20638;-76
2023/05/20 08:24:05;;;;;;;9.05;3.55;;;17.70;52.10;;;;;;5095911;28;20189;-73
2023/05/20 08:26:32;;;;;;;7.00;3.83;;;17.70;52.10;;;;;;5113949;28;20181;-72
2023/05/20 08:28:59;;;;;;;9.93;3.58;;;17.70;52.20;;;;;;5095772;28;20189;-73
2023/05/20 08:31:26;;;;;;;7.93;3.65;;;17.70;52.20;;;;;;5095818;28;20192;-73
2023/05/20 08:33:55;;;;;;;6.38;3.50;;;17.70;52.80;;;;;;5095911;28;20185;-73
2023/05/20 08:36:22;;;;;;;7.53;3.58;;;17.70;52.20;;;;;;5113324;28;20714;-73
2023/05/20 08:38:52;;;;;;;6.88;3.92;;;17.70;52.20;;;;;;5095429;28;20197;-73
2023/05/20 08:41:21;;;;;;;8.48;3.80;;;17.70;52.30;;;;;;5113661;28;20189;-73
2023/05/20 08:43:50;;;;;;;7.72;3.42;;;17.70;52.30;;;;;;5113874;28;20678;-73
2023/05/20 08:46:18;;;;;;;8.75;4.30;;;17.70;52.30;;;;;;5113623;28;20189;-73
2023/05/20 08:48:46;;;;;;;8.10;4.07;;;17.70;52.30;;;;;;5113412;28;20217;-73
2023/05/20 08:51:16;;;;;;;7.75;3.90;;;17.70;52.30;;;;;;5113163;28;20777;-73
2023/05/20 08:53:43;;;;;;;10.82;3.78;;;17.70;52.40;;;;;;5113083;28;20213;-73
2023/05/20 08:56:12;;;;;;;6.97;3.92;;;17.70;52.40;;;;;;5113121;28;20205;-75
2023/05/20 08:58:41;;;;;;;6.95;3.63;;;17.70;52.40;;;;;;5095202;28;20236;-73
2023/05/20 09:01:09;;;;;;;9.18;3.90;;;17.70;52.40;;;;;;5095284;28;20670;-73
2023/05/20 09:03:36;;;;;;;8.57;4.03;;;17.70;52.40;;;;;;5113097;28;20219;-73
2023/05/20 09:06:08;;;;;;;11.60;4.07;;;17.70;52.50;;;;;;5113268;28;20192;-73
2023/05/20 09:08:37;;;;;;;8.25;3.83;;;17.70;52.50;;;;;;5113149;28;20751;-73
2023/05/20 09:11:04;;;;;;;6.28;3.83;;;17.70;52.50;;;;;;5113382;28;20269;-74
2023/05/20 09:13:32;;;;;;;7.10;3.47;;;17.70;52.50;;;;;;5112905;28;20811;-74
2023/05/20 09:16:00;;;;;;;7.70;3.92;;;17.70;52.50;;;;;;5112946;28;20200;-73
2023/05/20 09:18:28;;;;;;;8.00;3.88;;;17.70;52.60;;;;;;5094859;28;20269;-72
2023/05/20 09:20:55;;;;;;;9.77;4.03;;;17.70;52.70;;;;;;5113060;28;20296;-72
2023/05/20 09:23:24;;;;;;;7.13;3.83;;;17.70;53.20;;;;;;5094994;28;20592;-73
2023/05/20 09:25:53;;;;;;;6.53;3.95;;;17.70;52.60;;;;;;5112652;28;20713;-73
2023/05/20 09:28:22;;;;;;;7.93;3.67;;;17.70;52.60;;;;;;5095083;28;20295;-72
2023/05/20 09:30:50;;;;;;;10.13;3.88;;;17.70;52.70;;;;;;5112935;28;20193;-72
2023/05/20 09:33:18;;;;;;;8.18;3.65;;;17.70;52.70;;;;;;5112918;28;20247;-72
2023/05/20 09:35:45;;;;;;;8.52;4.10;;;17.70;52.70;;;;;;5112892;28;20186;-73
2023/05/20 09:38:14;;;;;;;8.40;4.28;;;17.70;52.70;;;;;;5112455;28;20710;-74
2023/05/20 09:40:44;;;;;;;8.63;4.38;;;17.70;52.70;;;;;;5077941;28;20662;-73
2023/05/20 09:43:13;;;;;;;8.73;4.50;;;17.70;52.70;;;;;;5094277;28;20221;-77
2023/05/20 09:45:41;;;;;;;8.63;3.55;;;17.70;52.80;;;;;;5112393;28;20639;-73
2023/05/20 09:48:10;;;;;;;7.15;4.15;;;17.70;52.80;;;;;;5112574;28;20764;-72
2023/05/20 09:50:38;;;;;;;7.72;4.20;;;17.70;52.80;;;;;;5112465;28;20237;-73
2023/05/20 09:53:05;;;;;;;7.10;4.00;;;17.70;52.80;;;;;;5112726;28;20209;-74
2023/05/20 09:55:33;;;;;;;9.65;4.47;;;17.70;52.90;;;;;;5112334;28;20655;-73
2023/05/20 09:58:02;;;;;;;8.68;4.65;;;17.70;52.90;;;;;;5112677;28;20221;-72
2023/05/20 10:00:31;;;;;;;9.02;4.30;;;17.60;52.80;;;;;;5112826;28;20193;-72
2023/05/20 10:03:00;;;;;;;8.07;4.38;;;17.70;52.90;;;;;;5112272;28;20213;-72
2023/05/20 10:05:30;;;;;;;7.13;4.15;;;17.70;52.90;;;;;;5112621;28;20186;-73
2023/05/20 10:08:25;;;;;;;9.15;4.43;;;17.70;53.60;;;;;;5094824;28;20213;-73
2023/05/20 10:11:00;;;;;;;8.15;4.35;;;17.70;53.00;;;;;;5078819;28;20197;-73
2023/05/20 10:13:48;;;;;;;12.75;5.22;;;17.70;53.00;;;;;;5112548;28;20208;-73
2023/05/20 10:16:28;;;;;;;9.35;4.43;;;17.70;53.00;;;;;;5112304;28;20288;-76
2023/05/20 10:19:03;;;;;;;8.75;4.55;;;17.70;53.00;;;;;;5112687;28;20320;-73
2023/05/20 10:21:31;;;;;;;10.75;5.03;;;17.70;53.00;;;;;;5078153;28;20197;-73
2023/05/20 10:24:07;;;;;;;10.07;4.30;;;17.70;53.10;;;;;;5112235;28;20300;-73
2023/05/20 10:26:37;;;;;;;9.43;4.25;;;17.70;53.10;;;;;;5112491;28;20200;-72
2023/05/20 10:29:15;;;;;;;13.27;5.25;;;17.70;53.10;;;;;;5112338;28;20186;-72
2023/05/20 10:31:49;;;;;;;8.15;4.72;;;17.70;53.20;;;;;;5112231;28;20185;-73
2023/05/20 10:34:17;;;;;;;9.60;4.95;;;17.70;53.20;;;;;;5112636;28;20185;-72
2023/05/20 10:36:48;;;;;;;8.45;4.32;;;17.70;53.80;;;;;;5116044;28;20213;-73
2023/05/20 10:39:16;;;;;;;9.18;4.53;;;17.70;53.20;;;;;;5097532;28;20606;-72
2023/05/20 10:41:44;;;;;;;11.80;4.55;;;17.60;53.20;;;;;;5116021;28;20190;-73
2023/05/20 10:44:11;;;;;;;10.10;4.45;;;17.70;53.30;;;;;;5116028;28;20193;-72
2023/05/20 10:46:39;;;;;;;6.07;4.13;;;17.70;53.30;;;;;;5097893;28;20189;-72
2023/05/20 10:49:18;;;;;;;8.23;4.43;;;17.70;53.90;;;;;;5115568;28;20191;-73
2023/05/20 10:51:46;;;;;;;11.40;5.38;;;17.70;53.30;;;;;;5115684;28;20212;-74
2023/05/20 10:54:15;;;;;;;8.85;4.63;;;17.70;53.30;;;;;;5116031;28;20292;-72
2023/05/20 10:56:51;;;;;;;9.63;4.97;;;17.70;53.30;;;;;;5115802;28;20205;-72
2023/05/20 10:59:20;;;;;;;8.93;4.53;;;17.70;53.40;;;;;;5115552;28;20201;-72
2023/05/20 11:01:47;;;;;;;7.28;4.30;;;17.70;53.40;;;;;;5115400;28;20235;-73
2023/05/20 11:04:18;;;;;;;9.70;4.53;;;17.70;53.40;;;;;;5115549;28;20227;-73
2023/05/20 11:06:52;;;;;;;9.07;4.80;;;17.70;53.50;;;;;;5115552;28;20193;-73
2023/05/20 11:09:19;;;;;;;8.65;4.85;;;17.70;53.50;;;;;;5115529;28;20238;-73
2023/05/20 11:11:46;;;;;;;9.10;4.70;;;17.70;53.50;;;;;;5115389;28;20613;-73
2023/05/20 11:14:15;;;;;;;10.30;5.25;;;17.70;53.50;;;;;;5097316;28;20280;-73
2023/05/20 11:16:42;;;;;;;8.57;4.82;;;17.70;53.60;;;;;;5114990;28;20209;-73
2023/05/20 11:19:14;;;;;;;8.70;5.00;;;17.70;53.50;;;;;;5115230;28;20691;-72
2023/05/20 11:21:45;;;;;;;8.60;4.93;;;17.70;53.60;;;;;;5115234;28;20189;-72
2023/05/20 11:24:12;;;;;;;13.05;5.25;;;17.70;53.60;;;;;;5115181;28;20218;-72
2023/05/20 11:26:39;;;;;;;10.27;4.88;;;17.70;53.60;;;;;;5115240;28;20196;-73
2023/05/20 11:29:07;;;;;;;7.03;4.60;;;17.70;53.60;;;;;;5114895;28;20189;-72
2023/05/20 11:31:34;;;;;;;9.20;4.45;;;17.70;53.60;;;;;;5114763;28;20698;-72
2023/05/20 11:34:02;;;;;;;8.07;5.28;;;17.70;53.70;;;;;;5115559;28;20217;-73
2023/05/20 11:36:30;;;;;;;9.52;5.03;;;17.70;53.70;;;;;;5114535;28;20614;-73
2023/05/20 11:39:00;;;;;;;9.68;5.28;;;17.70;53.70;;;;;;5096947;28;20288;-74
2023/05/20 11:41:28;;;;;;;8.60;4.50;;;17.70;54.30;;;;;;5115120;28;20189;-73
2023/05/20 11:43:59;;;;;;;9.90;4.43;;;17.70;53.70;;;;;;5114957;28;20239;-73
2023/05/20 11:46:26;;;;;;;8.38;4.70;;;17.70;53.70;;;;;;5113400;28;20185;-73
2023/05/20 11:48:54;;;;;;;7.72;4.75;;;17.70;54.30;;;;;;5114780;28;20300;-78
2023/05/20 11:51:25;;;;;;;8.90;5.00;;;17.70;53.70;;;;;;5114676;28;20186;-72
2023/05/20 11:53:52;;;;;;;12.70;5.22;;;17.70;53.70;;;;;;5114531;28;20269;-71
2023/05/20 11:56:21;;;;;;;8.73;4.45;;;17.70;53.70;;;;;;5096608;28;20181;-74
2023/05/20 11:58:48;;;;;;;9.57;5.07;;;17.80;53.80;;;;;;5099382;28;20232;-74
2023/05/20 12:01:16;;;;;;;9.65;4.43;;;17.80;53.70;;;;;;5081285;28;20209;-73
2023/05/20 12:03:43;;;;;;;10.48;5.22;;;17.90;53.80;;;;;;5069767;28;20214;-73
2023/05/20 12:06:13;;;;;;;8.27;4.93;;;18.00;53.70;;;;;;5065554;28;20205;-72
2023/05/20 12:08:40;;;;;;;7.95;4.65;;;18.00;53.60;;;;;;5083027;28;20234;-73
2023/05/20 12:11:08;;;;;;;10.52;5.35;;;18.00;53.50;;;;;;5085095;28;20194;-74
2023/05/20 12:13:38;;;;;;;12.70;5.00;;;18.10;53.50;;;;;;5080914;28;20221;-73
2023/05/20 12:16:05;;;;;;;15.85;5.10;;;18.20;53.50;;;;;;5082533;28;20191;-73
2023/05/20 12:18:33;;;;;;;12.15;4.90;;;18.20;53.40;;;;;;5069908;28;20234;-73
2023/05/20 12:21:01;;;;;;;10.18;5.03;;;18.20;53.40;;;;;;5090186;28;20269;-73
2023/05/20 12:23:32;;;;;;;9.25;4.97;;;18.20;53.40;;;;;;5072406;28;20304;-73
2023/05/20 12:25:59;;;;;;;8.57;4.90;;;18.30;53.40;;;;;;5071005;28;20282;-72
2023/05/20 12:28:27;;;;;;;6.10;4.75;;;18.30;53.40;;;;;;5081621;28;20245;-75
2023/05/20 12:30:55;;;;;;;12.35;4.30;;;18.30;54.00;;;;;;5077609;28;20274;-73
2023/05/20 12:33:22;;;;;;;8.93;5.05;;;18.30;53.40;;;;;;5082713;28;20727;-73
2023/05/20 12:35:50;;;;;;;9.55;4.70;;;18.30;53.40;;;;;;5083869;28;20667;-73
2023/05/20 12:38:16;;;;;;;9.30;5.25;;;18.30;53.40;;;;;;5087376;28;20229;-72
2023/05/20 12:40:44;;;;;;;9.75;5.22;;;18.30;53.40;;;;;;5072496;28;20194;-73
2023/05/20 12:43:11;;;;;;;8.43;4.88;;;18.40;53.50;;;;;;5083858;28;20735;-72
2023/05/20 12:45:38;;;;;;;11.60;5.00;;;18.40;53.50;;;;;;5089483;28;20281;-73
2023/05/20 12:48:08;;;;;;;6.97;4.90;;;18.40;53.60;;;;;;5087188;28;20298;-72
2023/05/20 12:50:35;;;;;;;9.60;5.03;;;18.40;53.60;;;;;;5072449;28;20221;-73